Time;durP1;ratioP1;P1;durP2;ratioP2;P2;SDS_P1;SDS_P2;PMS_P1;PMS_P2;Temp;Humidity;BMP_temperature;BMP_pressure;BME280_temperature;BME280_humidity;BME280_pressure;Samples;Min_cycle;Max_cycle;Signal;HPM_P1;HPM_P2
2021/04/20 00:01:07;;;;;;;0.63;0.47;;;7.40;99.90;;;;;;5101927;28;20303;-79
2021/04/20 00:03:34;;;;;;;0.23;0.20;;;7.40;99.90;;;;;;5098815;27;20183;-79
2021/04/20 00:06:00;;;;;;;0.57;0.17;;;7.50;99.90;;;;;;5096657;28;20192;-79
2021/04/20 00:08:26;;;;;;;3.80;0.20;;;7.60;99.90;;;;;;5096184;28;20186;-79
2021/04/20 00:10:51;;;;;;;0.60;0.47;;;7.60;99.90;;;;;;5100940;28;20679;-78
2021/04/20 00:13:17;;;;;;;0.77;0.43;;;7.70;99.90;;;;;;5096804;28;20196;-79
2021/04/20 00:15:43;;;;;;;0.20;0.20;;;7.70;99.90;;;;;;5104306;28;20200;-79
2021/04/20 00:18:08;;;;;;;0.37;0.37;;;7.70;99.90;;;;;;5104533;28;20189;-79
2021/04/20 00:20:35;;;;;;;0.20;0.20;;;7.70;99.90;;;;;;5102135;28;20669;-79
2021/04/20 00:23:02;;;;;;;0.10;0.10;;;7.60;99.90;;;;;;5096955;28;20191;-79
2021/04/20 00:25:27;;;;;;;1.30;0.37;;;7.60;99.90;;;;;;5099586;28;20210;-79
2021/04/20 00:27:53;;;;;;;0.17;0.17;;;7.70;99.90;;;;;;5103896;28;20566;-79
2021/04/20 00:30:19;;;;;;;0.17;0.17;;;7.70;99.90;;;;;;5097081;28;20195;-79
2021/04/20 00:32:45;;;;;;;0.40;0.30;;;7.70;99.90;;;;;;5097041;28;20207;-79
2021/04/20 00:35:11;;;;;;;0.30;0.30;;;7.70;99.90;;;;;;5112902;27;20184;-79
2021/04/20 00:37:37;;;;;;;0.40;0.40;;;7.60;99.90;;;;;;5102235;28;20196;-79
2021/04/20 00:40:08;;;;;;;0.20;0.20;;;7.20;99.90;;;;;;5110028;28;20300;-79
2021/04/20 00:42:54;;;;;;;0.10;0.10;;;7.00;99.90;;;;;;5100993;28;20300;-79
2021/04/20 00:45:26;;;;;;;0.20;0.20;;;7.10;99.90;;;;;;5098433;28;20258;-79
2021/04/20 00:47:52;;;;;;;0.23;0.23;;;7.20;99.90;;;;;;5102730;28;20180;-79
2021/04/20 00:50:21;;;;;;;0.30;0.30;;;7.30;99.90;;;;;;5095516;28;20288;-79
2021/04/20 00:52:47;;;;;;;1.10;0.43;;;7.30;99.90;;;;;;5114722;28;20221;-79
2021/04/20 00:55:13;;;;;;;0.30;0.30;;;7.40;99.90;;;;;;5102393;28;20224;-78
2021/04/20 00:57:39;;;;;;;0.30;0.30;;;7.40;99.90;;;;;;5099036;28;20277;-79
2021/04/20 01:00:14;;;;;;;0.20;0.20;;;7.40;99.90;;;;;;5093169;28;20961;-80
2021/04/20 01:02:41;;;;;;;0.57;0.30;;;7.40;99.90;;;;;;5127998;27;20294;-79
2021/04/20 01:05:16;;;;;;;0.37;0.23;;;7.40;99.90;;;;;;5093609;28;20184;-79
2021/04/20 01:07:44;;;;;;;0.10;0.10;;;7.40;99.90;;;;;;5100939;28;20211;-79
2021/04/20 01:10:11;;;;;;;1.80;0.40;;;7.40;99.90;;;;;;5096753;28;20232;-79
2021/04/20 01:12:38;;;;;;;0.40;0.40;;;7.10;99.90;;;;;;5101609;28;20257;-80
2021/04/20 01:15:05;;;;;;;0.67;0.17;;;6.90;99.90;;;;;;5094065;28;20197;-79
2021/04/20 01:17:31;;;;;;;0.13;0.13;;;6.60;99.90;;;;;;5100188;28;20193;-79
2021/04/20 01:20:03;;;;;;;0.43;0.33;;;6.50;99.90;;;;;;5109437;28;20226;-79
2021/04/20 01:22:32;;;;;;;0.20;0.20;;;6.40;99.90;;;;;;5099453;28;20695;-79
2021/04/20 01:24:59;;;;;;;0.30;0.30;;;6.30;99.90;;;;;;5096935;28;20212;-79
2021/04/20 01:27:25;;;;;;;0.20;0.20;;;6.20;99.90;;;;;;5100261;28;20200;-79
2021/04/20 01:30:10;;;;;;;0.23;0.23;;;6.20;99.90;;;;;;5093913;28;20698;-80
2021/04/20 01:32:41;;;;;;;0.50;0.50;;;6.10;99.90;;;;;;5105009;28;20655;-79
2021/04/20 01:35:12;;;;;;;0.60;0.60;;;6.20;99.90;;;;;;5107822;28;20184;-79
2021/04/20 01:37:38;;;;;;;1.50;0.57;;;6.20;99.90;;;;;;5098147;28;20263;-79
2021/04/20 01:40:06;;;;;;;0.23;0.20;;;6.20;99.90;;;;;;5094411;28;20200;-79
2021/04/20 01:42:33;;;;;;;0.10;0.10;;;6.10;99.90;;;;;;5096607;28;20574;-79
2021/04/20 01:44:58;;;;;;;0.10;0.10;;;6.10;99.90;;;;;;5094957;28;20237;-77
2021/04/20 01:47:24;;;;;;;0.30;0.30;;;6.00;99.90;;;;;;5096709;28;20192;-79
2021/04/20 01:49:50;;;;;;;0.77;0.77;;;6.00;99.90;;;;;;5093515;28;20286;-80
2021/04/20 01:52:16;;;;;;;0.23;0.23;;;5.90;99.90;;;;;;5093005;28;20678;-79
2021/04/20 01:54:42;;;;;;;0.70;0.70;;;5.90;99.90;;;;;;5094827;28;20181;-79
2021/04/20 01:57:10;;;;;;;1.00;0.50;;;5.90;99.90;;;;;;5105243;28;20563;-79
2021/04/20 01:59:36;;;;;;;0.20;0.20;;;5.90;99.90;;;;;;5109908;28;20726;-79
2021/04/20 02:02:02;;;;;;;1.57;1.07;;;5.90;99.90;;;;;;5113022;27;20232;-79
2021/04/20 02:04:28;;;;;;;0.10;0.10;;;6.00;99.90;;;;;;5100707;28;20657;-79
2021/04/20 02:06:53;;;;;;;0.57;0.20;;;6.10;99.90;;;;;;5101694;28;20195;-79
2021/04/20 02:09:20;;;;;;;0.10;0.10;;;6.20;99.90;;;;;;5093413;28;20200;-78
2021/04/20 02:11:45;;;;;;;0.40;0.37;;;6.30;99.90;;;;;;5104280;28;20180;-78
2021/04/20 02:14:11;;;;;;;0.10;0.10;;;6.30;99.90;;;;;;5098066;28;20292;-79
2021/04/20 02:16:37;;;;;;;0.10;0.10;;;6.40;99.90;;;;;;5097872;28;20184;-79
2021/04/20 02:19:06;;;;;;;0.20;0.20;;;6.50;99.90;;;;;;5104178;28;20200;-79
2021/04/20 02:21:33;;;;;;;2.53;1.20;;;6.50;99.90;;;;;;5111724;28;20203;-79
2021/04/20 02:23:59;;;;;;;0.40;0.40;;;6.60;99.90;;;;;;5106665;28;20185;-80
2021/04/20 02:26:35;;;;;;;1.30;0.47;;;6.70;99.90;;;;;;5096472;28;20184;-79
2021/04/20 02:29:03;;;;;;;0.10;0.10;;;6.70;99.90;;;;;;5099408;28;20585;-79
2021/04/20 02:31:33;;;;;;;0.87;0.20;;;6.70;99.90;;;;;;5096127;28;20176;-79
2021/04/20 02:34:00;;;;;;;0.20;0.20;;;6.80;99.90;;;;;;5099960;28;20221;-79
2021/04/20 02:36:25;;;;;;;0.30;0.30;;;6.80;99.90;;;;;;5100306;28;20199;-79
2021/04/20 02:38:51;;;;;;;0.17;0.17;;;6.70;99.90;;;;;;5102025;28;20181;-79
2021/04/20 02:41:18;;;;;;;0.30;0.30;;;6.70;99.90;;;;;;5091704;28;20218;-79
2021/04/20 02:43:45;;;;;;;0.47;0.47;;;6.60;99.90;;;;;;5106030;28;20180;-80
2021/04/20 02:46:13;;;;;;;0.40;0.40;;;6.50;99.90;;;;;;5111837;28;20709;-78
2021/04/20 02:48:39;;;;;;;0.53;0.53;;;6.20;99.90;;;;;;5107378;28;20192;-79
2021/04/20 02:51:11;;;;;;;0.10;0.10;;;5.90;99.90;;;;;;5111128;28;20688;-78
2021/04/20 02:53:38;;;;;;;0.20;0.20;;;5.80;99.90;;;;;;5096212;28;20180;-78
2021/04/20 02:56:04;;;;;;;0.30;0.30;;;5.80;99.90;;;;;;5102458;28;20214;-79
2021/04/20 02:58:29;;;;;;;0.90;0.90;;;5.90;99.90;;;;;;5095137;28;20256;-79
2021/04/20 03:01:11;;;;;;;0.10;0.10;;;6.10;99.90;;;;;;5096523;27;20250;-78
2021/04/20 03:03:38;;;;;;;0.60;0.37;;;6.20;99.90;;;;;;5093930;28;20176;-78
2021/04/20 03:06:05;;;;;;;1.03;0.20;;;6.30;99.90;;;;;;5091618;28;20660;-80
2021/04/20 03:08:31;;;;;;;0.50;0.50;;;6.30;99.90;;;;;;5105946;28;20679;-79
2021/04/20 03:11:00;;;;;;;0.50;0.50;;;6.20;99.90;;;;;;5101222;28;20203;-79
2021/04/20 03:13:26;;;;;;;0.30;0.20;;;6.00;99.90;;;;;;5095786;28;20212;-79
2021/04/20 03:15:52;;;;;;;0.30;0.30;;;5.90;99.90;;;;;;5091333;28;20211;-79
2021/04/20 03:18:18;;;;;;;0.73;0.30;;;5.90;99.90;;;;;;5100889;28;20728;-79
2021/04/20 03:20:43;;;;;;;0.50;0.50;;;6.00;99.90;;;;;;5090769;28;20245;-78
2021/04/20 03:23:09;;;;;;;0.10;0.10;;;6.10;99.90;;;;;;5093181;28;20190;-79
2021/04/20 03:25:35;;;;;;;0.77;0.57;;;6.20;99.90;;;;;;5102419;28;20180;-79
2021/04/20 03:28:01;;;;;;;0.20;0.20;;;6.20;99.90;;;;;;5100256;28;20181;-79
2021/04/20 03:30:30;;;;;;;0.10;0.10;;;6.30;99.90;;;;;;5102317;28;20257;-79
2021/04/20 03:33:26;;;;;;;0.33;0.33;;;6.40;99.90;;;;;;5107909;28;20195;-79
2021/04/20 03:36:01;;;;;;;0.83;0.67;;;6.30;99.90;;;;;;5111749;28;20180;-81
2021/04/20 03:38:56;;;;;;;1.10;0.80;;;6.40;99.90;;;;;;5104318;28;20222;-81
2021/04/20 03:41:28;;;;;;;0.10;0.10;;;6.40;99.90;;;;;;5093994;28;20204;-78
2021/04/20 03:43:59;;;;;;;0.50;0.50;;;6.40;99.90;;;;;;5096810;28;20177;-79
2021/04/20 03:46:38;;;;;;;0.23;0.20;;;6.30;99.90;;;;;;5112224;28;20568;-80
2021/04/20 03:49:28;;;;;;;0.60;0.60;;;6.20;99.90;;;;;;5101706;28;20226;-80
2021/04/20 03:51:55;;;;;;;0.10;0.10;;;6.20;99.90;;;;;;5107107;28;20185;-80
2021/04/20 03:54:23;;;;;;;0.23;0.23;;;6.20;99.90;;;;;;5107651;28;20290;-80
2021/04/20 03:56:52;;;;;;;0.20;0.20;;;6.20;99.90;;;;;;5096718;28;20219;-80
2021/04/20 03:59:19;;;;;;;0.80;0.30;;;6.20;99.90;;;;;;5102559;28;20278;-80
2021/04/20 04:01:48;;;;;;;0.27;0.27;;;6.20;99.90;;;;;;5110453;27;20576;-78
2021/04/20 04:04:25;;;;;;;0.63;0.60;;;6.20;99.90;;;;;;5096496;28;20208;-80
2021/04/20 04:06:52;;;;;;;0.30;0.30;;;6.20;99.90;;;;;;5102345;28;20186;-80
2021/04/20 04:09:19;;;;;;;0.53;0.43;;;6.30;99.90;;;;;;5105879;28;20200;-80
2021/04/20 04:11:58;;;;;;;0.23;0.23;;;6.20;99.90;;;;;;5101704;28;20211;-80
2021/04/20 04:14:28;;;;;;;0.43;0.23;;;6.20;99.90;;;;;;5096324;28;20176;-80
2021/04/20 04:17:00;;;;;;;0.53;0.47;;;6.10;99.90;;;;;;5105521;28;20183;-80
2021/04/20 04:19:38;;;;;;;0.77;0.43;;;5.90;99.90;;;;;;5096209;28;20617;-80
2021/04/20 04:22:10;;;;;;;0.20;0.20;;;5.90;99.90;;;;;;5104684;28;20208;-80
2021/04/20 04:24:41;;;;;;;0.87;0.40;;;6.00;99.90;;;;;;5095633;28;20180;-80
2021/04/20 04:27:09;;;;;;;2.33;0.13;;;6.10;99.90;;;;;;5110126;27;20176;-81
2021/04/20 04:29:36;;;;;;;0.30;0.30;;;6.10;99.90;;;;;;5101844;27;20204;-80
2021/04/20 04:32:03;;;;;;;0.10;0.10;;;6.20;99.90;;;;;;5113179;27;20269;-79
2021/04/20 04:34:30;;;;;;;0.17;0.17;;;6.20;99.90;;;;;;5106362;28;20210;-80
2021/04/20 04:36:57;;;;;;;0.20;0.20;;;6.20;99.90;;;;;;5094466;28;20660;-80
2021/04/20 04:39:22;;;;;;;0.97;0.30;;;6.20;99.90;;;;;;5098950;27;20268;-80
2021/04/20 04:41:49;;;;;;;0.87;0.57;;;6.10;99.90;;;;;;5100660;27;20231;-79
2021/04/20 04:44:15;;;;;;;0.33;0.27;;;6.10;99.90;;;;;;5103894;27;20187;-80
2021/04/20 04:46:41;;;;;;;0.10;0.10;;;6.10;99.90;;;;;;5112215;28;20180;-79
2021/04/20 04:49:09;;;;;;;0.17;0.17;;;6.20;99.90;;;;;;5096470;28;20204;-80
2021/04/20 04:51:37;;;;;;;0.87;0.57;;;6.20;99.90;;;;;;5094515;28;20267;-80
2021/04/20 04:54:05;;;;;;;0.30;0.30;;;6.20;99.90;;;;;;5095180;28;20226;-80
2021/04/20 04:56:32;;;;;;;0.10;0.10;;;6.20;99.90;;;;;;5113267;28;20184;-79
2021/04/20 04:58:59;;;;;;;2.80;0.53;;;6.20;99.90;;;;;;5103173;28;20558;-79
2021/04/20 05:01:26;;;;;;;0.27;0.27;;;6.40;99.90;;;;;;5104246;27;20233;-79
2021/04/20 05:03:51;;;;;;;0.60;0.60;;;6.50;99.90;;;;;;5106331;28;20169;-80
2021/04/20 05:06:18;;;;;;;1.80;0.73;;;6.50;99.90;;;;;;5097241;28;20253;-79
2021/04/20 05:08:43;;;;;;;0.13;0.13;;;6.40;99.90;;;;;;5111243;28;20179;-80
2021/04/20 05:11:09;;;;;;;0.40;0.40;;;6.40;99.90;;;;;;5101724;27;20193;-78
2021/04/20 05:13:35;;;;;;;0.37;0.37;;;6.50;99.90;;;;;;5112906;27;20207;-80
2021/04/20 05:16:08;;;;;;;0.90;0.90;;;6.40;99.90;;;;;;5112190;27;20718;-82
2021/04/20 05:18:35;;;;;;;0.40;0.40;;;6.20;99.90;;;;;;5122536;27;20206;-82
2021/04/20 05:21:01;;;;;;;0.67;0.53;;;6.10;99.90;;;;;;5100873;27;20632;-82
2021/04/20 05:23:26;;;;;;;2.07;0.80;;;6.00;99.90;;;;;;5093316;28;20237;-82
2021/04/20 05:25:53;;;;;;;0.10;0.10;;;6.10;99.90;;;;;;5111322;27;20185;-79
2021/04/20 05:28:20;;;;;;;0.30;0.30;;;6.40;99.90;;;;;;5094544;28;20229;-79
2021/04/20 05:30:45;;;;;;;0.63;0.40;;;6.40;99.90;;;;;;5107945;28;20195;-79
2021/04/20 05:33:14;;;;;;;0.20;0.20;;;6.50;99.90;;;;;;5092666;28;20279;-79
2021/04/20 05:35:41;;;;;;;0.30;0.30;;;6.80;99.90;;;;;;5094048;28;20219;-79
2021/04/20 05:38:06;;;;;;;2.30;0.40;;;6.90;99.90;;;;;;5094287;28;20271;-79
2021/04/20 05:40:36;;;;;;;0.63;0.37;;;6.60;99.90;;;;;;5094096;28;20637;-79
2021/04/20 05:43:02;;;;;;;0.20;0.20;;;6.80;99.90;;;;;;5093799;28;20188;-78
2021/04/20 05:45:28;;;;;;;0.13;0.13;;;6.90;99.90;;;;;;5093251;28;20213;-77
2021/04/20 05:47:54;;;;;;;0.30;0.30;;;7.00;99.90;;;;;;5096013;28;20279;-79
2021/04/20 05:50:28;;;;;;;1.90;1.00;;;6.80;99.90;;;;;;5104733;28;20208;-79
2021/04/20 05:52:56;;;;;;;1.03;0.47;;;6.90;99.90;;;;;;5105894;28;20249;-78
2021/04/20 05:55:21;;;;;;;0.60;0.60;;;7.10;99.90;;;;;;5108491;28;20212;-82
2021/04/20 05:57:52;;;;;;;0.93;0.90;;;7.10;99.90;;;;;;5094232;28;20210;-82
2021/04/20 06:00:20;;;;;;;0.40;0.40;;;7.30;99.90;;;;;;5092932;28;20334;-78
2021/04/20 06:02:47;;;;;;;0.33;0.33;;;7.60;99.90;;;;;;5111440;27;20214;-81
2021/04/20 06:05:22;;;;;;;0.50;0.50;;;7.70;99.90;;;;;;5102478;28;20193;-78
2021/04/20 06:07:51;;;;;;;1.23;0.93;;;7.80;99.90;;;;;;5098454;28;20206;-79
2021/04/20 06:10:17;;;;;;;0.83;0.83;;;8.00;99.90;;;;;;5101516;27;20667;-79
2021/04/20 06:12:45;;;;;;;0.50;0.50;;;8.30;99.90;;;;;;5105852;27;20565;-78
2021/04/20 06:15:13;;;;;;;0.20;0.20;;;8.60;99.90;;;;;;5095875;28;20829;-76
2021/04/20 06:17:39;;;;;;;0.40;0.40;;;8.70;99.90;;;;;;5097875;28;20652;-79
2021/04/20 06:20:08;;;;;;;0.70;0.63;;;9.00;99.90;;;;;;5099396;28;20215;-82
2021/04/20 06:22:35;;;;;;;0.97;0.83;;;9.30;99.90;;;;;;5098192;28;20208;-82
2021/04/20 06:25:02;;;;;;;0.67;0.60;;;9.50;99.90;;;;;;5098544;28;20236;-82
2021/04/20 06:27:29;;;;;;;1.93;0.77;;;9.70;99.90;;;;;;5101231;28;20189;-81
2021/04/20 06:29:55;;;;;;;1.20;0.63;;;9.90;99.90;;;;;;5101997;28;20298;-82
2021/04/20 06:32:20;;;;;;;2.93;0.60;;;10.00;99.90;;;;;;5100548;28;20201;-83
2021/04/20 06:34:46;;;;;;;0.47;0.47;;;10.10;99.90;;;;;;5100589;27;20182;-82
2021/04/20 06:37:13;;;;;;;0.87;0.33;;;10.20;99.90;;;;;;5107552;28;20188;-82
2021/04/20 06:39:39;;;;;;;0.73;0.63;;;10.40;99.90;;;;;;5102718;28;20213;-80
2021/04/20 06:42:11;;;;;;;2.80;0.47;;;10.50;99.90;;;;;;5103064;28;20259;-79
2021/04/20 06:44:47;;;;;;;1.50;0.27;;;10.60;99.90;;;;;;5098722;28;20548;-80
2021/04/20 06:47:22;;;;;;;0.53;0.53;;;10.70;99.90;;;;;;5102540;28;20190;-80
2021/04/20 06:50:03;;;;;;;0.60;0.60;;;10.80;99.90;;;;;;5105052;28;20197;-80
2021/04/20 06:52:39;;;;;;;0.43;0.43;;;10.90;99.90;;;;;;5103419;28;20186;-80
2021/04/20 06:55:09;;;;;;;1.17;0.70;;;11.00;99.90;;;;;;5116081;27;20190;-80
2021/04/20 06:57:39;;;;;;;0.93;0.93;;;11.20;99.90;;;;;;5101108;28;20280;-80
2021/04/20 07:00:08;;;;;;;1.07;0.77;;;11.30;99.90;;;;;;5103944;28;20199;-79
2021/04/20 07:03:00;;;;;;;1.10;1.00;;;11.30;99.90;;;;;;5101006;27;20676;-80
2021/04/20 07:05:34;;;;;;;2.90;0.97;;;11.20;99.90;;;;;;5100721;28;20261;-79
2021/04/20 07:08:19;;;;;;;1.30;0.80;;;11.30;99.90;;;;;;5101129;28;20182;-80
2021/04/20 07:10:46;;;;;;;1.40;0.80;;;11.50;99.90;;;;;;5100279;28;20222;-79
2021/04/20 07:13:16;;;;;;;2.13;1.83;;;11.50;99.90;;;;;;5105285;28;20179;-79
2021/04/20 07:15:56;;;;;;;4.47;2.10;;;11.40;99.90;;;;;;5105096;27;20228;-80
2021/04/20 07:18:43;;;;;;;1.17;0.47;;;11.40;99.90;;;;;;5110872;27;20584;-79
2021/04/20 07:21:18;;;;;;;1.03;0.80;;;11.20;99.90;;;;;;5100172;28;20216;-80
2021/04/20 07:24:15;;;;;;;1.80;1.63;;;11.40;99.90;;;;;;5102407;28;20355;-78
2021/04/20 07:27:04;;;;;;;3.00;1.50;;;11.50;99.90;;;;;;5098382;28;20196;-80
2021/04/20 07:29:37;;;;;;;1.07;0.93;;;11.50;99.90;;;;;;5105122;28;20268;-80
2021/04/20 07:32:41;;;;;;;1.63;1.30;;;11.60;99.90;;;;;;5092353;28;20654;-80
2021/04/20 07:35:15;;;;;;;0.73;0.60;;;11.70;99.90;;;;;;5103076;28;20186;-80
2021/04/20 07:37:50;;;;;;;1.87;1.77;;;11.60;99.90;;;;;;5106565;28;20188;-80
2021/04/20 07:40:15;;;;;;;0.73;0.73;;;11.70;99.90;;;;;;5097306;28;20752;-81
2021/04/20 07:42:53;;;;;;;1.80;1.60;;;11.70;99.90;;;;;;5096238;28;20290;-80
2021/04/20 07:45:28;;;;;;;3.13;1.67;;;11.80;99.90;;;;;;5095495;28;20179;-80
2021/04/20 07:48:04;;;;;;;1.00;0.87;;;12.00;99.90;;;;;;5091668;28;20660;-80
2021/04/20 07:50:35;;;;;;;0.77;0.77;;;12.10;99.90;;;;;;5095313;28;20202;-81
2021/04/20 07:53:08;;;;;;;1.43;0.70;;;12.10;99.90;;;;;;5091714;28;20236;-80
2021/04/20 07:55:46;;;;;;;0.40;0.40;;;12.30;99.90;;;;;;5091416;28;20204;-80
2021/04/20 07:58:13;;;;;;;3.47;0.93;;;12.50;99.90;;;;;;5090625;28;20183;-79
2021/04/20 08:01:07;;;;;;;1.10;1.10;;;12.50;99.90;;;;;;5092181;28;20226;-80
2021/04/20 08:03:47;;;;;;;2.93;1.33;;;12.60;99.90;;;;;;5109882;28;20191;-80
2021/04/20 08:06:19;;;;;;;1.07;0.83;;;12.80;99.90;;;;;;5111981;28;20660;-81
2021/04/20 08:08:57;;;;;;;1.43;0.87;;;13.00;99.90;;;;;;5105456;28;20586;-79
2021/04/20 08:11:40;;;;;;;1.53;0.87;;;13.20;99.90;;;;;;5093531;28;20180;-81
2021/04/20 08:14:26;;;;;;;0.83;0.83;;;13.20;99.90;;;;;;5104542;28;20194;-83
2021/04/20 08:16:57;;;;;;;0.80;0.80;;;13.30;99.90;;;;;;5103990;28;20176;-83
2021/04/20 08:19:46;;;;;;;1.20;1.10;;;13.30;99.90;;;;;;5093562;28;20273;-79
2021/04/20 08:22:15;;;;;;;1.03;0.97;;;13.40;99.90;;;;;;5090744;28;20212;-80
2021/04/20 08:24:52;;;;;;;1.57;1.47;;;13.60;99.90;;;;;;5094242;28;20546;-80
2021/04/20 08:27:32;;;;;;;1.03;0.80;;;13.80;99.90;;;;;;5096287;28;20182;-79
2021/04/20 08:30:09;;;;;;;2.20;1.37;;;13.90;99.90;;;;;;5106190;28;20191;-80
2021/04/20 08:32:37;;;;;;;6.40;1.23;;;14.00;99.90;;;;;;5110294;27;20281;-80
2021/04/20 08:35:23;;;;;;;0.80;0.80;;;14.30;99.90;;;;;;5106227;27;20181;-80
2021/04/20 08:37:55;;;;;;;1.60;1.23;;;14.50;99.90;;;;;;5105006;27;20180;-80
2021/04/20 08:40:40;;;;;;;2.27;2.07;;;14.60;99.90;;;;;;5111658;28;20201;-80
2021/04/20 08:43:44;;;;;;;0.90;0.70;;;14.70;99.90;;;;;;5104813;27;20214;-79
2021/04/20 08:46:28;;;;;;;1.43;1.33;;;15.00;99.90;;;;;;5108979;27;20843;-80
2021/04/20 08:49:17;;;;;;;0.77;0.77;;;15.20;99.90;;;;;;5103769;28;20186;-80
2021/04/20 08:52:08;;;;;;;9.00;1.67;;;15.30;99.90;;;;;;5098966;28;20251;-80
2021/04/20 08:55:13;;;;;;;1.07;0.87;;;15.30;99.90;;;;;;5101973;28;20524;-80
2021/04/20 08:58:04;;;;;;;1.80;1.47;;;15.50;99.90;;;;;;5102671;28;20217;-80
2021/04/20 09:01:03;;;;;;;1.47;1.37;;;15.70;99.90;;;;;;5094446;28;20572;-81
2021/04/20 09:04:07;;;;;;;0.20;0.20;;;15.90;99.90;;;;;;5103617;28;20296;-78
2021/04/20 09:06:43;;;;;;;3.40;1.47;;;15.90;99.90;;;;;;5095460;28;20213;-80
2021/04/20 09:09:13;;;;;;;2.23;0.80;;;15.90;99.90;;;;;;5099702;28;20204;-80
2021/04/20 09:11:48;;;;;;;1.17;0.60;;;15.90;99.90;;;;;;5101985;28;20225;-79
2021/04/20 09:14:21;;;;;;;0.63;0.63;;;16.20;99.90;;;;;;5102487;28;20255;-80
2021/04/20 09:16:59;;;;;;;0.87;0.87;;;16.40;99.90;;;;;;5117382;28;20245;-79
2021/04/20 09:19:25;;;;;;;1.80;1.10;;;16.40;99.90;;;;;;5113557;27;20251;-79
2021/04/20 09:22:48;;;;;;;3.20;1.40;;;16.50;99.90;;;;;;5116220;27;20267;-80
2021/04/20 09:25:19;;;;;;;0.80;0.80;;;16.60;99.90;;;;;;5050480;28;20177;-80
2021/04/20 09:27:58;;;;;;;1.80;1.07;;;16.70;99.90;;;;;;5108626;27;20417;-80
2021/04/20 09:30:27;;;;;;;1.87;0.97;;;16.80;99.90;;;;;;5106335;28;20203;-80
2021/04/20 09:32:57;;;;;;;1.73;1.03;;;16.90;99.90;;;;;;5097878;28;20190;-80
2021/04/20 09:35:24;;;;;;;1.00;0.73;;;16.50;99.90;;;;;;5107590;28;20193;-79
2021/04/20 09:37:52;;;;;;;3.73;2.20;;;16.90;99.90;;;;;;5099707;28;20223;-80
2021/04/20 09:40:21;;;;;;;4.77;1.23;;;15.90;99.90;;;;;;5099973;28;20670;-80
2021/04/20 09:42:52;;;;;;;3.23;1.53;;;15.80;99.90;;;;;;5107687;28;20664;-80
2021/04/20 09:45:29;;;;;;;1.53;1.10;;;15.90;99.90;;;;;;5102418;28;20182;-80
2021/04/20 09:48:23;;;;;;;1.73;1.13;;;16.30;99.90;;;;;;5107546;28;20674;-80
2021/04/20 09:51:12;;;;;;;0.67;0.50;;;16.60;99.90;;;;;;5097976;28;20682;-80
2021/04/20 09:53:47;;;;;;;1.93;1.60;;;17.10;99.90;;;;;;5107983;28;20240;-79
2021/04/20 09:56:35;;;;;;;1.63;1.40;;;17.30;99.90;;;;;;5105800;28;20187;-78
2021/04/20 09:59:15;;;;;;;1.50;1.40;;;17.40;99.90;;;;;;5094492;28;20275;-79
2021/04/20 10:02:09;;;;;;;1.63;0.73;;;17.30;99.90;;;;;;5102505;27;20193;-80
2021/04/20 10:04:41;;;;;;;0.93;0.87;;;17.40;99.90;;;;;;5101031;28;20192;-79
2021/04/20 10:07:21;;;;;;;0.50;0.50;;;17.70;99.90;;;;;;5107079;28;20205;-78
2021/04/20 10:10:07;;;;;;;3.40;1.53;;;17.70;99.90;;;;;;5106555;28;20240;-80
2021/04/20 10:12:51;;;;;;;1.20;1.10;;;17.80;99.90;;;;;;5099780;28;20258;-78
2021/04/20 10:15:29;;;;;;;1.07;0.90;;;17.90;99.90;;;;;;5105149;28;20205;-78
2021/04/20 10:17:57;;;;;;;0.80;0.80;;;17.60;99.90;;;;;;5107587;28;20238;-79
2021/04/20 10:20:47;;;;;;;5.63;1.43;;;17.80;99.90;;;;;;5095577;28;20240;-79
2021/04/20 10:23:38;;;;;;;1.47;1.00;;;17.50;99.90;;;;;;5101525;28;20269;-79
2021/04/20 10:26:34;;;;;;;1.50;1.00;;;17.70;99.90;;;;;;5108877;28;20240;-80
2021/04/20 10:29:27;;;;;;;2.57;1.63;;;18.00;99.90;;;;;;5104026;28;20187;-80
2021/04/20 10:32:08;;;;;;;1.50;0.80;;;18.10;99.90;;;;;;5094165;28;20200;-80
2021/04/20 10:34:43;;;;;;;0.70;0.70;;;18.40;99.90;;;;;;5112673;28;20172;-80
2021/04/20 10:37:10;;;;;;;1.63;0.67;;;18.60;99.90;;;;;;5100156;27;20603;-80
2021/04/20 10:39:37;;;;;;;3.43;2.20;;;18.50;99.90;;;;;;5099979;28;20571;-80
2021/04/20 10:42:03;;;;;;;0.67;0.67;;;18.20;99.90;;;;;;5097775;28;20200;-80
2021/04/20 10:44:32;;;;;;;1.73;1.30;;;18.00;99.90;;;;;;5101011;28;20184;-80
2021/04/20 10:47:00;;;;;;;3.53;1.60;;;18.40;99.90;;;;;;5102889;28;20200;-79
2021/04/20 10:49:28;;;;;;;0.70;0.63;;;18.60;99.90;;;;;;5099618;28;20631;-80
2021/04/20 10:51:57;;;;;;;1.47;1.40;;;18.80;99.90;;;;;;5102372;28;20176;-80
2021/04/20 10:54:32;;;;;;;1.50;1.40;;;18.80;99.90;;;;;;5102632;28;20191;-80
2021/04/20 10:57:01;;;;;;;0.83;0.57;;;18.60;99.90;;;;;;5105880;28;20179;-80
2021/04/20 10:59:33;;;;;;;1.20;1.10;;;18.90;99.90;;;;;;5102714;28;20217;-80
2021/04/20 11:02:05;;;;;;;1.40;1.10;;;19.00;99.90;;;;;;5097247;27;20203;-80
2021/04/20 11:04:34;;;;;;;1.80;0.97;;;18.10;99.90;;;;;;5100378;28;20180;-80
2021/04/20 11:07:23;;;;;;;0.60;0.60;;;18.40;99.90;;;;;;5100358;28;20184;-80
2021/04/20 11:09:57;;;;;;;0.70;0.70;;;18.90;99.90;;;;;;5096233;28;20203;-84
2021/04/20 11:12:25;;;;;;;2.67;1.53;;;19.00;99.90;;;;;;5092063;28;20179;-79
2021/04/20 11:14:52;;;;;;;2.60;1.93;;;17.90;99.90;;;;;;5090238;28;20187;-80
2021/04/20 11:17:23;;;;;;;0.50;0.47;;;18.10;99.90;;;;;;5099066;28;20210;-81
2021/04/20 11:19:53;;;;;;;2.50;0.60;;;18.70;99.90;;;;;;5098230;28;20283;-80
2021/04/20 11:22:21;;;;;;;1.33;0.50;;;19.00;99.90;;;;;;5093810;28;20203;-81
2021/04/20 11:24:53;;;;;;;0.40;0.40;;;19.10;99.90;;;;;;5114142;27;20179;-80
2021/04/20 11:27:24;;;;;;;0.53;0.53;;;19.40;99.90;;;;;;5104267;28;20178;-80
2021/04/20 11:29:57;;;;;;;2.93;0.90;;;19.30;99.90;;;;;;5105699;28;20313;-80
2021/04/20 11:32:25;;;;;;;0.83;0.67;;;19.00;99.90;;;;;;5090968;28;20696;-80
2021/04/20 11:34:55;;;;;;;0.63;0.63;;;19.20;99.90;;;;;;5092001;28;20184;-81
2021/04/20 11:37:23;;;;;;;1.23;0.90;;;19.20;99.90;;;;;;5097440;28;20263;-81
2021/04/20 11:39:54;;;;;;;1.53;1.10;;;19.40;99.90;;;;;;5090730;28;20212;-81
2021/04/20 11:42:28;;;;;;;0.57;0.57;;;19.40;99.90;;;;;;5096607;28;20207;-80
2021/04/20 11:45:03;;;;;;;1.30;0.60;;;19.20;99.90;;;;;;5107124;28;20214;-81
2021/04/20 11:47:29;;;;;;;0.20;0.20;;;18.20;99.90;;;;;;5092635;28;20199;-81
2021/04/20 11:50:09;;;;;;;1.50;0.50;;;19.00;99.90;;;;;;5101798;28;20624;-81
2021/04/20 11:52:35;;;;;;;1.17;0.50;;;19.30;99.90;;;;;;5107003;28;20179;-81
2021/04/20 11:55:03;;;;;;;0.60;0.60;;;19.40;99.90;;;;;;5101169;28;20188;-81
2021/04/20 11:57:29;;;;;;;1.73;1.23;;;19.40;99.90;;;;;;5096824;28;20189;-80
2021/04/20 11:59:55;;;;;;;1.10;1.10;;;19.30;99.90;;;;;;5093654;28;20242;-81
2021/04/20 12:02:28;;;;;;;0.97;0.87;;;19.60;99.90;;;;;;5097171;27;20682;-80
2021/04/20 12:05:00;;;;;;;0.90;0.70;;;19.90;99.90;;;;;;5094222;28;20797;-81
2021/04/20 12:07:28;;;;;;;1.33;1.33;;;20.00;99.90;;;;;;5093825;28;20809;-81
2021/04/20 12:09:54;;;;;;;0.40;0.40;;;20.20;99.90;;;;;;5103955;28;20209;-81
2021/04/20 12:12:31;;;;;;;1.13;1.03;;;20.20;99.90;;;;;;5103055;28;20184;-81
2021/04/20 12:14:59;;;;;;;0.77;0.67;;;20.00;99.90;;;;;;5103255;28;20275;-80
2021/04/20 12:17:33;;;;;;;1.03;0.93;;;20.10;99.90;;;;;;5094333;28;20721;-81
2021/04/20 12:20:05;;;;;;;0.83;0.63;;;20.20;99.90;;;;;;5093410;28;20629;-81
2021/04/20 12:22:31;;;;;;;2.73;0.70;;;20.40;99.90;;;;;;5100491;28;20196;-80
2021/04/20 12:24:59;;;;;;;1.43;1.33;;;20.60;99.90;;;;;;5093469;28;20188;-81
2021/04/20 12:27:27;;;;;;;1.20;0.30;;;20.50;99.90;;;;;;5094704;28;20187;-81
2021/04/20 12:29:53;;;;;;;1.63;1.00;;;20.50;99.90;;;;;;5104931;28;20230;-81
2021/04/20 12:32:21;;;;;;;1.90;1.80;;;20.60;99.90;;;;;;5097056;28;20199;-81
2021/04/20 12:34:57;;;;;;;1.73;1.17;;;20.70;99.90;;;;;;5101289;28;20195;-80
2021/04/20 12:37:25;;;;;;;1.10;0.70;;;20.60;99.90;;;;;;5100755;28;20240;-81
2021/04/20 12:39:58;;;;;;;0.80;0.80;;;20.60;99.90;;;;;;5094618;28;20204;-81
2021/04/20 12:42:30;;;;;;;1.70;1.23;;;20.70;99.90;;;;;;5101676;28;20215;-81
2021/04/20 12:44:58;;;;;;;0.67;0.67;;;20.50;99.90;;;;;;5095838;28;20198;-81
2021/04/20 12:47:30;;;;;;;1.30;1.20;;;20.00;99.90;;;;;;5105986;28;20181;-80
2021/04/20 12:49:58;;;;;;;0.50;0.50;;;20.10;99.90;;;;;;5094761;28;20204;-81
2021/04/20 12:52:26;;;;;;;0.50;0.50;;;20.40;99.90;;;;;;5097794;28;20619;-80
2021/04/20 12:54:59;;;;;;;1.13;0.97;;;20.50;99.90;;;;;;5095243;28;20213;-80
2021/04/20 12:57:30;;;;;;;0.80;0.60;;;20.50;99.90;;;;;;5094337;28;20192;-80
2021/04/20 12:59:59;;;;;;;1.50;1.40;;;20.60;99.90;;;;;;5093510;28;20232;-80
2021/04/20 13:02:26;;;;;;;0.87;0.87;;;20.60;99.90;;;;;;5109590;27;20200;-87
2021/04/20 13:04:53;;;;;;;0.83;0.83;;;20.80;99.90;;;;;;5096698;28;20185;-84
2021/04/20 13:07:26;;;;;;;1.43;1.30;;;20.60;99.90;;;;;;5093944;28;20189;-83
2021/04/20 13:09:53;;;;;;;1.80;1.10;;;20.60;99.90;;;;;;5106100;28;20208;-83
2021/04/20 13:12:24;;;;;;;3.07;1.60;;;20.50;99.90;;;;;;5094761;28;20186;-83
2021/04/20 13:14:50;;;;;;;0.83;0.83;;;20.30;99.90;;;;;;5099082;28;20832;-84
2021/04/20 13:17:22;;;;;;;0.87;0.77;;;20.10;99.90;;;;;;5107588;28;20606;-83